createdAt,value
2017-07-03T00:00:12.227Z,13.70
2017-07-03T00:02:41.213Z,13.70
2017-07-03T00:05:09.416Z,13.70
2017-07-03T00:07:37.698Z,13.70
2017-07-03T00:10:06.809Z,13.50
2017-07-03T00:12:35.011Z,13.50
2017-07-03T00:15:03.344Z,13.50
2017-07-03T00:17:32.316Z,13.50
2017-07-03T00:20:00.523Z,13.50
2017-07-03T00:22:28.742Z,13.60
2017-07-03T00:24:57.075Z,13.60
2017-07-03T00:27:26.047Z,13.50
2017-07-03T00:29:54.263Z,13.50
2017-07-03T00:32:22.503Z,13.50
2017-07-03T00:34:50.720Z,13.50
2017-07-03T00:37:19.093Z,13.50
2017-07-03T00:39:47.385Z,13.50
2017-07-03T00:42:15.586Z,13.50
2017-07-03T00:44:43.809Z,13.40
2017-07-03T00:47:12.020Z,13.30
2017-07-03T00:49:40.258Z,13.20
2017-07-03T00:52:09.241Z,13.20
2017-07-03T00:54:37.448Z,13.10
2017-07-03T00:57:05.658Z,13.10
2017-07-03T00:59:34.055Z,13.10
2017-07-03T01:02:02.258Z,13.00
2017-07-03T01:04:31.233Z,12.90
2017-07-03T01:06:59.446Z,12.90
2017-07-03T01:09:27.664Z,12.90
2017-07-03T01:11:55.855Z,12.90
2017-07-03T01:14:24.068Z,12.90
2017-07-03T01:16:52.285Z,12.90
2017-07-03T01:19:20.490Z,12.90
2017-07-03T01:21:49.514Z,12.70
2017-07-03T01:24:17.774Z,12.70
2017-07-03T01:26:46.875Z,12.70
2017-07-03T01:29:15.165Z,12.60
2017-07-03T01:31:43.375Z,12.70
2017-07-03T01:34:11.603Z,12.50
2017-07-03T01:36:39.800Z,12.50
2017-07-03T01:39:08.059Z,12.40
2017-07-03T01:41:37.162Z,12.20
2017-07-03T01:44:06.127Z,12.20
2017-07-03T01:46:34.330Z,12.20
2017-07-03T01:49:02.550Z,12.20
2017-07-03T01:51:30.761Z,12.20
2017-07-03T01:53:58.988Z,12.10
2017-07-03T01:56:27.195Z,12.00
2017-07-03T01:58:55.497Z,12.00
2017-07-03T02:01:23.995Z,12.00
2017-07-03T02:03:52.979Z,12.00
2017-07-03T02:06:21.194Z,12.00
2017-07-03T02:08:49.391Z,11.90
2017-07-03T02:11:17.601Z,11.80
2017-07-03T02:13:45.808Z,11.80
2017-07-03T02:16:14.029Z,11.70
2017-07-03T02:18:42.244Z,11.70
2017-07-03T02:21:10.452Z,11.60
2017-07-03T02:23:38.723Z,11.50
2017-07-03T02:26:06.970Z,11.50
2017-07-03T02:28:36.073Z,11.60
2017-07-03T02:31:04.273Z,11.60
2017-07-03T02:33:32.518Z,11.60
2017-07-03T02:36:00.726Z,11.50
2017-07-03T02:38:28.934Z,11.50
2017-07-03T02:40:57.153Z,11.50
2017-07-03T02:43:25.347Z,11.40
2017-07-03T02:45:53.557Z,11.30
2017-07-03T02:48:21.761Z,11.40
2017-07-03T02:50:49.978Z,11.30
2017-07-03T02:53:18.249Z,11.40
2017-07-03T02:55:46.450Z,11.40
2017-07-03T02:58:14.666Z,11.40
2017-07-03T03:00:43.070Z,11.40
2017-07-03T03:03:11.378Z,11.40
2017-07-03T03:05:39.633Z,11.40
2017-07-03T03:08:07.906Z,11.40
2017-07-03T03:10:36.119Z,11.50
2017-07-03T03:13:04.748Z,11.50
2017-07-03T03:15:32.969Z,11.50
2017-07-03T03:18:01.222Z,11.40
2017-07-03T03:20:29.438Z,11.40
2017-07-03T03:22:57.770Z,11.40
2017-07-03T03:25:25.969Z,11.40
2017-07-03T03:27:54.167Z,11.30
2017-07-03T03:30:22.599Z,11.30
2017-07-03T03:32:51.583Z,11.20
2017-07-03T03:35:19.780Z,11.20
2017-07-03T03:37:47.996Z,11.10
2017-07-03T03:40:16.191Z,11.00
2017-07-03T03:42:44.396Z,11.10
2017-07-03T03:45:12.889Z,11.10
2017-07-03T03:47:41.850Z,11.20
2017-07-03T03:50:10.266Z,11.20
2017-07-03T03:52:38.525Z,11.30
2017-07-03T03:55:07.668Z,11.30
2017-07-03T03:57:36.113Z,11.30
2017-07-03T04:00:05.077Z,11.40
2017-07-03T04:02:33.301Z,11.40
2017-07-03T04:05:01.578Z,11.40
2017-07-03T04:07:29.864Z,11.50
2017-07-03T04:09:58.063Z,11.50
2017-07-03T04:12:26.268Z,11.50
2017-07-03T04:14:54.502Z,11.60
2017-07-03T04:17:22.710Z,11.60
2017-07-03T04:19:51.035Z,11.60
2017-07-03T04:22:19.229Z,11.60
2017-07-03T04:24:47.430Z,11.50
2017-07-03T04:27:15.683Z,11.40
2017-07-03T04:29:43.908Z,11.50
2017-07-03T04:32:12.120Z,11.50
2017-07-03T04:34:40.321Z,11.60
2017-07-03T04:37:08.540Z,11.70
2017-07-03T04:39:37.532Z,11.90
2017-07-03T04:42:05.710Z,11.90
2017-07-03T04:44:34.813Z,12.10
2017-07-03T04:47:03.780Z,12.20
2017-07-03T04:49:31.985Z,12.20
2017-07-03T04:52:00.966Z,12.40
2017-07-03T04:54:29.168Z,12.40
2017-07-03T04:56:57.388Z,12.50
2017-07-03T04:59:25.591Z,12.60
2017-07-03T05:01:53.797Z,12.60
2017-07-03T05:04:22.006Z,12.80
2017-07-03T05:09:24.743Z,12.90
2017-07-03T05:11:52.943Z,13.10
2017-07-03T05:14:21.134Z,13.30
2017-07-03T05:16:49.343Z,13.40
2017-07-03T05:19:17.661Z,13.60
2017-07-03T05:21:46.693Z,14.00
2017-07-03T05:24:14.890Z,14.00
2017-07-03T05:26:43.085Z,15.80
2017-07-03T05:29:11.313Z,17.40
2017-07-03T05:31:39.518Z,17.90
2017-07-03T05:34:07.757Z,18.80
2017-07-03T05:36:36.230Z,19.10
2017-07-03T05:39:05.322Z,20.20
2017-07-03T05:41:34.309Z,20.00
2017-07-03T05:44:08.239Z,20.00
2017-07-03T05:46:36.459Z,20.80
2017-07-03T05:49:04.675Z,22.10
2017-07-03T05:51:32.888Z,23.10
2017-07-03T05:54:01.097Z,24.20
2017-07-03T05:56:29.313Z,24.70
2017-07-03T05:58:57.522Z,24.60
2017-07-03T06:01:25.765Z,24.40
2017-07-03T06:03:53.976Z,24.40
2017-07-03T06:06:22.174Z,23.90
2017-07-03T06:08:50.389Z,23.20
2017-07-03T06:11:18.594Z,22.50
2017-07-03T06:13:46.813Z,22.10
2017-07-03T06:16:15.028Z,21.70
2017-07-03T06:18:43.323Z,21.40
2017-07-03T06:21:11.534Z,21.40
2017-07-03T06:23:39.735Z,21.30
2017-07-03T06:26:07.967Z,21.30
2017-07-03T06:28:36.174Z,21.50
2017-07-03T06:31:04.370Z,21.40
2017-07-03T06:33:32.573Z,21.00
2017-07-03T06:36:00.806Z,20.70
2017-07-03T06:38:29.025Z,20.40
2017-07-03T06:40:57.218Z,20.20
2017-07-03T06:43:25.454Z,20.20
2017-07-03T06:45:53.676Z,20.30
2017-07-03T06:48:21.889Z,20.20
2017-07-03T06:50:50.108Z,19.80
2017-07-03T06:53:18.349Z,19.60
2017-07-03T06:55:47.343Z,19.20
2017-07-03T06:58:15.542Z,19.20
2017-07-03T07:00:43.779Z,19.00
2017-07-03T07:03:12.093Z,19.10
2017-07-03T07:05:40.294Z,19.20
2017-07-03T07:08:08.514Z,19.40
2017-07-03T07:10:36.733Z,19.80
2017-07-03T07:13:04.988Z,20.20
2017-07-03T07:15:34.082Z,21.60
2017-07-03T07:18:03.067Z,22.40
2017-07-03T07:20:31.457Z,22.40
2017-07-03T07:23:00.430Z,23.30
2017-07-03T07:25:28.715Z,23.20
2017-07-03T07:27:56.890Z,23.60
2017-07-03T07:30:25.869Z,25.70
2017-07-03T07:32:54.062Z,25.70
2017-07-03T07:35:23.051Z,28.40
2017-07-03T07:37:51.264Z,28.40
2017-07-03T07:40:19.487Z,27.50
2017-07-03T07:42:47.699Z,26.60
2017-07-03T07:45:15.899Z,26.10
2017-07-03T07:47:44.355Z,26.00
2017-07-03T07:50:12.617Z,25.50
2017-07-03T07:52:41.626Z,24.80
2017-07-03T07:55:09.842Z,24.80
2017-07-03T07:57:38.039Z,26.10
2017-07-03T08:00:06.243Z,26.40
2017-07-03T08:02:34.458Z,26.50
2017-07-03T08:05:02.693Z,26.40
2017-07-03T08:07:31.683Z,30.40
2017-07-03T08:09:59.884Z,30.30
2017-07-03T08:12:28.168Z,31.50
2017-07-03T08:14:56.442Z,32.90
2017-07-03T08:17:24.702Z,34.20
2017-07-03T08:19:53.711Z,35.80
2017-07-03T08:22:21.913Z,35.70
2017-07-03T08:24:50.122Z,36.50
2017-07-03T08:27:18.331Z,36.40
2017-07-03T08:29:46.533Z,36.10
2017-07-03T08:32:14.989Z,36.00
2017-07-03T08:34:43.186Z,36.40
2017-07-03T08:37:11.410Z,36.30
2017-07-03T08:39:39.601Z,37.20
2017-07-03T08:42:07.898Z,36.90
2017-07-03T08:44:36.878Z,36.90
2017-07-03T08:47:05.078Z,36.90
2017-07-03T08:49:33.306Z,38.00
2017-07-03T08:52:01.506Z,37.70
2017-07-03T08:54:29.717Z,37.20
2017-07-03T08:56:57.991Z,36.50
2017-07-03T08:59:26.207Z,35.60
2017-07-03T09:01:54.402Z,35.60
2017-07-03T09:04:22.600Z,36.70
2017-07-03T09:06:50.820Z,36.70
2017-07-03T09:09:19.028Z,35.90
2017-07-03T09:11:47.244Z,34.50
2017-07-03T09:14:15.482Z,34.60
2017-07-03T09:16:43.799Z,34.80
2017-07-03T09:19:12.022Z,34.80
2017-07-03T09:21:40.220Z,33.90
2017-07-03T09:24:08.446Z,33.90
2017-07-03T09:26:36.686Z,34.60
2017-07-03T09:29:04.919Z,34.50
2017-07-03T09:31:33.118Z,35.00
2017-07-03T09:34:01.338Z,35.10
2017-07-03T09:36:29.541Z,34.70
2017-07-03T09:38:57.821Z,35.20
2017-07-03T09:41:26.848Z,35.00
2017-07-03T09:43:55.074Z,35.00
2017-07-03T09:46:23.586Z,34.30
2017-07-03T09:48:52.559Z,33.50
2017-07-03T09:51:20.962Z,33.50
2017-07-03T09:53:49.982Z,33.50
2017-07-03T09:56:18.189Z,33.40
2017-07-03T09:58:46.409Z,34.10
2017-07-03T10:01:14.646Z,34.60
2017-07-03T10:03:42.834Z,33.90
2017-07-03T10:06:11.037Z,34.10
2017-07-03T10:08:39.258Z,33.70
2017-07-03T10:11:07.517Z,34.00
2017-07-03T10:13:35.826Z,34.80
2017-07-03T10:16:04.031Z,35.60
2017-07-03T10:18:32.259Z,35.20
2017-07-03T10:21:00.838Z,34.30
2017-07-03T10:23:29.490Z,32.50
2017-07-03T10:25:57.697Z,30.60
2017-07-03T10:28:26.098Z,29.60
2017-07-03T10:30:54.320Z,28.50
2017-07-03T10:33:22.539Z,28.10
2017-07-03T10:35:50.783Z,30.00
2017-07-03T10:38:18.998Z,33.20
2017-07-03T10:40:47.962Z,35.90
2017-07-03T10:43:16.204Z,35.90
2017-07-03T10:45:44.461Z,36.40
2017-07-03T10:48:12.691Z,35.90
2017-07-03T10:50:41.039Z,35.70
2017-07-03T10:53:10.179Z,33.40
2017-07-03T10:55:38.394Z,33.30
2017-07-03T10:58:06.614Z,31.40
2017-07-03T11:00:34.819Z,29.90
2017-07-03T11:03:03.146Z,29.50
2017-07-03T11:05:31.377Z,28.60
2017-07-03T11:07:59.585Z,27.70
2017-07-03T11:10:27.829Z,27.00
2017-07-03T11:12:56.024Z,27.10
2017-07-03T11:15:24.246Z,27.50
2017-07-03T11:17:52.553Z,27.60
2017-07-03T11:20:20.756Z,27.30
2017-07-03T11:22:49.099Z,27.10
2017-07-03T11:25:17.308Z,26.20
2017-07-03T11:27:45.637Z,26.00
2017-07-03T11:30:14.073Z,25.90
2017-07-03T11:32:42.303Z,25.80
2017-07-03T11:35:10.503Z,25.90
2017-07-03T11:37:38.703Z,26.20
2017-07-03T11:40:06.906Z,26.20
2017-07-03T11:42:35.122Z,26.10
2017-07-03T11:45:03.950Z,26.10
2017-07-03T11:47:32.174Z,26.00
2017-07-03T11:50:00.396Z,25.90
2017-07-03T11:52:28.611Z,25.90
2017-07-03T11:54:56.818Z,26.00
2017-07-03T11:57:25.030Z,26.20
2017-07-03T11:59:53.382Z,26.10
2017-07-03T12:02:21.728Z,26.10
2017-07-03T12:04:49.950Z,26.30
2017-07-03T12:07:18.201Z,26.50
2017-07-03T12:09:46.398Z,26.50
2017-07-03T12:12:14.828Z,26.10
2017-07-03T12:14:44.955Z,25.80
2017-07-03T12:17:17.482Z,25.70
2017-07-03T12:19:45.695Z,25.80
2017-07-03T12:22:14.673Z,26.10
2017-07-03T12:24:42.881Z,26.00
2017-07-03T12:27:11.144Z,26.30
2017-07-03T12:29:40.132Z,26.20
2017-07-03T12:32:08.395Z,26.20
2017-07-03T12:34:36.574Z,26.40
2017-07-03T12:37:04.874Z,26.60
2017-07-03T12:39:33.073Z,26.90
2017-07-03T12:42:01.627Z,27.10
2017-07-03T12:44:30.596Z,26.90
2017-07-03T12:46:58.792Z,26.90
2017-07-03T12:49:27.007Z,26.60
2017-07-03T12:51:55.209Z,26.30
2017-07-03T12:54:23.527Z,26.10
2017-07-03T12:56:51.740Z,26.20
2017-07-03T12:59:20.737Z,26.90
2017-07-03T13:01:49.008Z,26.90
2017-07-03T13:04:17.182Z,26.90
2017-07-03T13:06:45.502Z,27.00
2017-07-03T13:09:13.839Z,26.60
2017-07-03T13:11:42.028Z,26.30
2017-07-03T13:14:10.338Z,25.90
2017-07-03T13:16:38.618Z,25.70
2017-07-03T13:19:06.844Z,25.60
2017-07-03T13:21:35.050Z,25.90
2017-07-03T13:24:03.260Z,26.10
2017-07-03T13:26:31.479Z,26.50
2017-07-03T13:28:59.708Z,26.30
2017-07-03T13:31:27.903Z,26.50
2017-07-03T13:33:56.222Z,26.30
2017-07-03T13:36:24.440Z,26.00
2017-07-03T13:38:52.637Z,26.00
2017-07-03T13:41:20.845Z,26.10
2017-07-03T13:43:49.047Z,26.20
2017-07-03T13:46:17.317Z,26.40
2017-07-03T13:48:45.646Z,26.40
2017-07-03T13:51:13.862Z,26.00
2017-07-03T13:53:42.079Z,26.10
2017-07-03T13:56:10.290Z,26.10
2017-07-03T13:58:38.507Z,26.30
2017-07-03T14:01:06.806Z,26.10
2017-07-03T14:03:35.022Z,26.00
2017-07-03T14:06:04.010Z,26.80
2017-07-03T14:08:32.212Z,26.80
2017-07-03T14:11:01.222Z,27.20
2017-07-03T14:13:29.382Z,27.10
2017-07-03T14:15:57.787Z,27.10
2017-07-03T14:18:26.006Z,27.20
2017-07-03T14:20:54.222Z,27.20
2017-07-03T14:23:23.331Z,27.40
2017-07-03T14:25:52.312Z,27.40
2017-07-03T14:28:20.514Z,27.40
2017-07-03T14:30:48.766Z,27.40
2017-07-03T14:33:17.743Z,27.00
2017-07-03T14:35:45.948Z,27.00
2017-07-03T14:38:14.976Z,26.90
2017-07-03T14:40:43.224Z,26.90
2017-07-03T14:43:11.607Z,27.10
2017-07-03T14:45:39.809Z,27.10
2017-07-03T14:48:08.384Z,26.90
2017-07-03T14:50:36.585Z,27.00
2017-07-03T14:53:04.793Z,27.00
2017-07-03T14:55:33.021Z,26.70
2017-07-03T14:58:01.227Z,26.70
2017-07-03T15:00:29.429Z,26.70
2017-07-03T15:02:57.630Z,26.50
2017-07-03T15:05:25.847Z,26.80
2017-07-03T15:07:54.198Z,26.80
2017-07-03T15:10:22.398Z,26.90
2017-07-03T15:12:50.616Z,26.70
2017-07-03T15:15:18.816Z,26.30
2017-07-03T15:17:47.077Z,26.50
2017-07-03T15:20:15.292Z,26.60
2017-07-03T15:22:43.748Z,26.80
2017-07-03T15:25:11.948Z,26.70
2017-07-03T15:27:40.145Z,26.40
2017-07-03T15:30:08.350Z,26.50
2017-07-03T15:32:36.547Z,26.60
2017-07-03T15:35:04.757Z,26.40
2017-07-03T15:37:32.984Z,26.50
2017-07-03T15:40:01.361Z,26.50
2017-07-03T15:42:30.328Z,26.50
2017-07-03T15:44:58.543Z,26.50
2017-07-03T15:47:26.813Z,26.20
2017-07-03T15:49:55.952Z,26.20
2017-07-03T15:52:24.905Z,26.30
2017-07-03T15:54:53.099Z,26.30
2017-07-03T15:57:21.377Z,26.30
2017-07-03T15:59:49.606Z,26.30
2017-07-03T16:02:17.814Z,26.30
2017-07-03T16:04:46.033Z,26.00
2017-07-03T16:07:14.276Z,25.70
2017-07-03T16:09:42.473Z,25.60
2017-07-03T16:12:10.818Z,25.70
2017-07-03T16:14:39.792Z,25.50
2017-07-03T16:17:07.986Z,25.50
2017-07-03T16:19:36.980Z,25.80
2017-07-03T16:22:05.208Z,25.80
2017-07-03T16:24:33.403Z,25.90
2017-07-03T16:27:01.618Z,26.00
2017-07-03T16:29:29.818Z,26.10
2017-07-03T16:31:58.062Z,26.30
2017-07-03T16:34:27.022Z,26.20
2017-07-03T16:36:55.240Z,26.20
2017-07-03T16:39:23.461Z,26.00
2017-07-03T16:41:51.658Z,25.90
2017-07-03T16:44:19.883Z,25.60
2017-07-03T16:46:48.077Z,25.40
2017-07-03T16:49:16.405Z,25.30
2017-07-03T16:51:44.711Z,25.30
2017-07-03T16:54:12.906Z,25.40
2017-07-03T16:56:41.243Z,25.10
2017-07-03T16:59:10.223Z,25.30
2017-07-03T17:01:38.455Z,25.30
2017-07-03T17:04:06.646Z,25.30
2017-07-03T17:06:34.867Z,25.00
2017-07-03T17:09:03.064Z,24.90
2017-07-03T17:11:31.270Z,24.50
2017-07-03T17:13:59.478Z,24.30
2017-07-03T17:16:27.674Z,24.30
2017-07-03T17:18:56.878Z,24.00
2017-07-03T17:21:25.079Z,24.00
2017-07-03T17:23:53.344Z,24.10
2017-07-03T17:26:21.601Z,24.20
2017-07-03T17:28:50.571Z,24.50
2017-07-03T17:31:18.892Z,24.40
2017-07-03T17:33:47.090Z,24.40
2017-07-03T17:36:15.309Z,24.50
2017-07-03T17:38:43.523Z,24.70
2017-07-03T17:41:11.722Z,24.60
2017-07-03T17:43:40.173Z,24.30
2017-07-03T17:46:08.435Z,24.30
2017-07-03T17:48:37.422Z,24.20
2017-07-03T17:51:05.662Z,24.20
2017-07-03T17:53:33.877Z,24.10
2017-07-03T17:56:02.864Z,24.20
2017-07-03T17:58:31.063Z,24.20
2017-07-03T18:00:59.265Z,24.40
2017-07-03T18:03:27.487Z,24.30
2017-07-03T18:05:55.686Z,24.10
2017-07-03T18:08:24.866Z,23.90
2017-07-03T18:10:53.098Z,23.90
2017-07-03T18:13:21.323Z,23.70
2017-07-03T18:15:50.310Z,23.60
2017-07-03T18:18:18.532Z,23.60
2017-07-03T18:20:46.734Z,23.60
2017-07-03T18:23:15.065Z,23.60
2017-07-03T18:25:43.336Z,23.50
2017-07-03T18:28:12.558Z,23.20
2017-07-03T18:30:40.956Z,23.20
2017-07-03T18:33:09.163Z,23.20
2017-07-03T18:35:37.472Z,23.10
2017-07-03T18:38:06.450Z,22.90
2017-07-03T18:40:34.655Z,22.90
2017-07-03T18:43:02.913Z,22.90
2017-07-03T18:45:31.892Z,22.70
2017-07-03T18:48:00.099Z,22.70
2017-07-03T18:50:28.656Z,22.60
2017-07-03T18:52:56.829Z,22.40
2017-07-03T18:55:25.034Z,22.20
2017-07-03T18:57:53.236Z,21.90
2017-07-03T19:00:21.493Z,21.60
2017-07-03T19:02:49.703Z,21.40
2017-07-03T19:05:17.907Z,21.20
2017-07-03T19:07:46.119Z,20.90
2017-07-03T19:10:14.319Z,20.50
2017-07-03T19:12:42.527Z,20.40
2017-07-03T19:15:10.934Z,20.10
2017-07-03T19:17:39.929Z,19.80
2017-07-03T19:20:08.111Z,19.80
2017-07-03T19:22:36.346Z,19.50
2017-07-03T19:25:04.545Z,19.20
2017-07-03T19:27:32.742Z,18.90
2017-07-03T19:30:00.980Z,18.70
2017-07-03T19:32:29.166Z,18.50
2017-07-03T19:34:57.378Z,18.30
2017-07-03T19:37:25.606Z,18.20
2017-07-03T19:39:53.824Z,18.10
2017-07-03T19:42:22.939Z,18.00
2017-07-03T19:44:51.143Z,17.80
2017-07-03T19:47:20.548Z,17.60
2017-07-03T19:49:49.565Z,17.50
2017-07-03T19:52:17.775Z,17.30
2017-07-03T19:54:45.985Z,17.20
2017-07-03T19:57:14.194Z,17.10
2017-07-03T19:59:42.420Z,17.10
2017-07-03T20:02:10.615Z,17.00
2017-07-03T20:04:38.821Z,16.90
2017-07-03T20:07:07.066Z,16.80
2017-07-03T20:09:35.269Z,16.70
2017-07-03T20:12:03.499Z,16.60
2017-07-03T20:14:31.714Z,16.50
2017-07-03T20:16:59.966Z,16.60
2017-07-03T20:19:28.198Z,16.50
2017-07-03T20:21:57.184Z,16.30
2017-07-03T20:24:25.394Z,16.20
2017-07-03T20:26:53.606Z,16.20
2017-07-03T20:29:21.827Z,16.20
2017-07-03T20:31:50.048Z,16.10
2017-07-03T20:34:18.268Z,16.00
2017-07-03T20:36:47.233Z,16.00
2017-07-03T20:39:15.442Z,16.00
2017-07-03T20:41:44.429Z,15.80
2017-07-03T20:44:12.649Z,15.80
2017-07-03T20:46:40.894Z,15.70
2017-07-03T20:49:09.174Z,15.70
2017-07-03T20:51:37.457Z,15.60
2017-07-03T20:54:05.674Z,15.50
2017-07-03T20:56:33.871Z,15.50
2017-07-03T20:59:02.090Z,15.50
2017-07-03T21:01:30.302Z,15.40
2017-07-03T21:03:58.516Z,15.40
2017-07-03T21:06:26.720Z,15.30
2017-07-03T21:08:55.008Z,15.30
2017-07-03T21:11:23.243Z,15.30
2017-07-03T21:13:52.225Z,15.20
2017-07-03T21:16:20.429Z,15.20
2017-07-03T21:18:48.650Z,15.10
2017-07-03T21:21:16.878Z,15.10
2017-07-03T21:23:45.083Z,15.00
2017-07-03T21:26:13.340Z,15.00
2017-07-03T21:28:42.314Z,15.00
2017-07-03T21:31:10.709Z,14.90
2017-07-03T21:33:38.915Z,14.90
2017-07-03T21:36:07.350Z,14.90
2017-07-03T21:38:35.506Z,14.90
2017-07-03T21:41:03.891Z,14.90
2017-07-03T21:43:32.113Z,14.90
2017-07-03T21:46:00.406Z,15.00
2017-07-03T21:48:28.622Z,15.00
2017-07-03T21:50:56.832Z,14.90
2017-07-03T21:53:25.040Z,14.90
2017-07-03T21:55:53.496Z,15.10
2017-07-03T21:58:21.738Z,15.10
2017-07-03T22:00:49.957Z,15.10
2017-07-03T22:03:18.198Z,15.10
2017-07-03T22:05:46.412Z,15.00
2017-07-03T22:08:14.627Z,14.90
2017-07-03T22:10:42.949Z,14.90
2017-07-03T22:13:11.149Z,15.00
2017-07-03T22:15:39.495Z,15.10
2017-07-03T22:18:08.469Z,15.20
2017-07-03T22:20:36.666Z,15.20
2017-07-03T22:23:04.964Z,15.30
2017-07-03T22:25:33.170Z,15.40
2017-07-03T22:28:01.388Z,15.50
2017-07-03T22:30:29.595Z,15.50
2017-07-03T22:32:57.860Z,15.60
2017-07-03T22:35:26.133Z,15.60
2017-07-03T22:37:54.422Z,15.70
2017-07-03T22:40:22.628Z,15.80
2017-07-03T22:42:50.929Z,15.80
2017-07-03T22:45:19.139Z,15.80
2017-07-03T22:47:47.349Z,15.80
2017-07-03T22:50:15.571Z,15.70
2017-07-03T22:52:43.871Z,15.70
2017-07-03T22:55:12.957Z,15.80
2017-07-03T22:57:41.256Z,15.80
2017-07-03T23:00:09.457Z,15.90
2017-07-03T23:02:37.658Z,16.00
2017-07-03T23:05:06.077Z,16.00
2017-07-03T23:07:34.378Z,16.00
2017-07-03T23:10:02.654Z,16.00
2017-07-03T23:12:30.844Z,16.00
2017-07-03T23:14:59.047Z,16.00
2017-07-03T23:17:27.251Z,15.90
2017-07-03T23:19:56.441Z,16.00
2017-07-03T23:22:24.631Z,16.00
2017-07-03T23:24:53.609Z,15.90
2017-07-03T23:27:21.803Z,15.90
2017-07-03T23:29:50.099Z,15.90
2017-07-03T23:32:18.324Z,15.90
2017-07-03T23:34:46.929Z,15.90
2017-07-03T23:37:15.099Z,15.90
2017-07-03T23:39:43.477Z,15.90
2017-07-03T23:42:11.689Z,15.80
2017-07-03T23:44:39.905Z,15.80
2017-07-03T23:47:08.110Z,15.80
2017-07-03T23:49:36.315Z,15.70
2017-07-03T23:52:04.527Z,15.80
2017-07-03T23:54:32.743Z,15.70
2017-07-03T23:57:00.943Z,15.60
2017-07-03T23:59:29.148Z,15.50
